Time;durP1;ratioP1;P1;durP2;ratioP2;P2;SDS_P1;SDS_P2;PMS_P1;PMS_P2;Temp;Humidity;BMP_temperature;BMP_pressure;BME280_temperature;BME280_humidity;BME280_pressure;Samples;Min_cycle;Max_cycle;Signal;HPM_P1;HPM_P2
2021/11/12 00:12:45;;;;;;;8.63;3.20;;;20.50;32.90;20.90;94221.00;;;;10397791;28;45570;-63
2021/11/12 00:17:46;;;;;;;9.57;3.47;;;20.40;32.80;20.90;94217.00;;;;10398253;28;46336;-61
2021/11/12 00:22:47;;;;;;;8.15;3.22;;;20.40;32.80;20.90;94214.00;;;;10396985;28;45155;-62
2021/11/12 00:27:48;;;;;;;7.65;3.05;;;20.40;32.90;20.90;94203.00;;;;10396348;28;45477;-62
2021/11/12 00:38:08;;;;;;;7.85;3.42;;;20.40;32.90;20.90;94208.00;;;;10396020;28;45162;-65
2021/11/12 00:43:32;;;;;;;9.60;3.55;;;20.40;32.90;20.90;94197.00;;;;10398095;28;46285;-61
2021/11/12 00:48:37;;;;;;;9.20;3.42;;;20.40;32.90;20.90;94189.00;;;;10396929;28;45434;-62
2021/11/12 00:54:21;;;;;;;8.18;3.15;;;20.40;32.90;20.90;94184.00;;;;10395743;28;45934;-62
2021/11/12 00:59:06;;;;;;;6.07;3.10;;;20.40;32.90;20.90;94173.00;;;;10392342;28;45209;-63
2021/11/12 01:04:11;;;;;;;6.47;3.10;;;20.40;32.90;20.90;94188.00;;;;10394995;28;45225;-61
2021/11/12 01:09:15;;;;;;;6.35;3.10;;;20.40;32.90;20.90;94188.00;;;;10376981;28;47049;-62
2021/11/12 01:14:23;;;;;;;5.63;3.08;;;20.40;32.90;20.90;94187.00;;;;10394335;28;45244;-63
2021/11/12 01:19:24;;;;;;;6.20;2.85;;;20.40;32.90;20.90;94163.00;;;;10377175;28;48401;-63
2021/11/12 01:24:25;;;;;;;7.22;2.78;;;20.40;32.90;20.90;94164.00;;;;10393542;28;45368;-62
2021/11/12 01:29:25;;;;;;;5.82;2.53;;;20.40;32.80;20.90;94164.00;;;;10377129;28;48059;-62
2021/11/12 01:34:26;;;;;;;5.32;2.60;;;20.40;32.90;20.90;94151.00;;;;10394435;28;45602;-62
2021/11/12 01:39:27;;;;;;;6.53;3.00;;;20.40;32.80;20.90;94133.00;;;;10376116;28;47224;-61
2021/11/12 01:44:33;;;;;;;6.55;2.67;;;20.40;32.90;20.90;94140.00;;;;10393228;28;45578;-63
2021/11/12 01:49:37;;;;;;;7.20;2.80;;;20.40;32.90;20.80;94136.00;;;;10394197;28;45611;-62
2021/11/12 01:59:38;;;;;;;5.32;2.60;;;20.40;32.90;20.80;94132.00;;;;10388329;28;46089;-63
2021/11/12 02:04:39;;;;;;;5.72;2.85;;;20.40;32.90;20.80;94120.00;;;;10388402;28;46216;-63
2021/11/12 02:09:40;;;;;;;4.68;2.05;;;20.40;32.90;20.80;94114.00;;;;10356122;28;48067;-61
2021/11/12 02:14:43;;;;;;;4.28;2.10;;;20.40;32.80;20.80;94121.00;;;;10352957;28;45503;-62
2021/11/12 02:19:55;;;;;;;4.80;2.15;;;20.40;32.90;20.80;94111.00;;;;10350989;28;48222;-63
2021/11/12 02:30:06;;;;;;;5.63;2.42;;;20.40;32.90;20.80;94091.00;;;;10350932;28;45402;-62
2021/11/12 02:35:07;;;;;;;5.30;2.30;;;20.40;32.90;20.80;94086.00;;;;10350935;28;45428;-62
2021/11/12 02:40:09;;;;;;;4.88;2.25;;;20.40;32.90;20.80;94077.00;;;;10350474;28;45974;-62
2021/11/12 02:45:09;;;;;;;6.60;2.50;;;20.40;32.90;20.80;94071.00;;;;10351730;28;45595;-62
2021/11/12 02:50:12;;;;;;;4.93;2.25;;;20.40;32.90;20.80;94073.00;;;;10376915;28;45304;-62
2021/11/12 02:55:14;;;;;;;5.75;2.35;;;20.40;33.60;20.80;94067.00;;;;10374738;28;47485;-63
2021/11/12 03:00:24;;;;;;;5.47;2.25;;;20.30;32.80;20.80;94062.00;;;;10391437;28;45236;-62
2021/11/12 03:05:25;;;;;;;4.38;2.00;;;20.40;32.90;20.80;94080.00;;;;10389913;28;47077;-62
2021/11/12 03:10:26;;;;;;;3.97;2.03;;;20.40;32.90;20.80;94074.00;;;;10348865;28;48178;-62
2021/11/12 03:15:27;;;;;;;3.42;1.80;;;20.30;32.80;20.80;94084.00;;;;10349728;28;45188;-62
2021/11/12 03:20:30;;;;;;;4.05;2.10;;;20.40;32.80;20.80;94082.00;;;;10348788;28;48192;-62
2021/11/12 03:25:47;;;;;;;4.95;2.20;;;20.40;32.90;20.80;94073.00;;;;10349463;28;45255;-62
2021/11/12 04:18:01;;;;;;;4.50;1.88;;;20.40;32.80;20.80;94087.00;;;;10348075;28;45195;-62
2021/11/12 05:11:25;;;;;;;2.80;1.77;;;20.30;32.90;20.80;94060.00;;;;10354609;28;45633;-63
2021/11/12 05:59:10;;;;;;;3.33;1.77;;;20.50;32.70;20.90;94066.00;;;;10380617;28;46304;-63
2021/11/12 06:04:12;;;;;;;3.75;1.50;;;20.40;32.70;20.90;94065.00;;;;10392392;28;46389;-62
2021/11/12 06:09:12;;;;;;;2.58;1.45;;;20.40;32.70;20.90;94064.00;;;;10361933;28;46303;-62
2021/11/12 06:14:13;;;;;;;3.58;1.65;;;20.40;32.70;20.80;94063.00;;;;10352537;28;45192;-62
2021/11/12 06:19:15;;;;;;;2.60;1.52;;;20.40;32.80;20.80;94061.00;;;;10352491;28;45199;-62
2021/11/12 06:24:16;;;;;;;2.45;1.35;;;20.30;32.80;20.80;94070.00;;;;10350844;28;46894;-62
2021/11/12 06:29:17;;;;;;;2.30;1.45;;;20.30;32.80;20.80;94053.00;;;;10350928;28;45593;-62
2021/11/12 06:34:18;;;;;;;2.65;1.40;;;20.30;32.80;20.80;94068.00;;;;10351327;28;45145;-61
2021/11/12 06:39:20;;;;;;;2.85;1.60;;;20.30;32.90;20.80;94049.00;;;;10351102;28;45297;-61
2021/11/12 06:44:29;;;;;;;2.45;1.30;;;20.30;32.90;20.80;94068.00;;;;10351493;28;47235;-63
2021/11/12 06:49:31;;;;;;;2.58;1.45;;;20.30;32.90;20.80;94057.00;;;;10350949;28;45635;-61
2021/11/12 06:54:32;;;;;;;2.47;1.60;;;20.40;32.90;20.80;94066.00;;;;10367733;28;46412;-64
2021/11/12 06:59:33;;;;;;;2.72;1.50;;;20.40;32.90;20.90;94067.00;;;;10350886;28;46552;-60
2021/11/12 07:04:33;;;;;;;2.47;1.35;;;20.40;32.80;20.90;94055.00;;;;10350069;28;47087;-61
2021/11/12 07:09:36;;;;;;;2.97;1.33;;;20.40;32.80;20.90;94070.00;;;;10383845;28;46237;-61
2021/11/12 07:14:37;;;;;;;2.72;1.55;;;20.40;32.80;20.90;94068.00;;;;10373947;28;47430;-61
2021/11/12 07:19:38;;;;;;;4.57;2.60;;;20.40;32.60;20.90;94063.00;;;;10388530;28;46327;-62
2021/11/12 07:24:39;;;;;;;4.32;2.42;;;20.40;31.40;20.80;94073.00;;;;10367425;28;47374;-61
2021/11/12 07:29:43;;;;;;;4.22;2.40;;;20.40;31.90;20.80;94060.00;;;;10365181;28;47129;-61
2021/11/12 07:34:46;;;;;;;6.60;2.35;;;20.30;31.80;20.80;94058.00;;;;10365686;28;47081;-62
2021/11/12 07:39:49;;;;;;;4.50;2.30;;;20.30;31.80;20.70;94063.00;;;;10364891;28;47981;-61
2021/11/12 07:49:59;;;;;;;4.18;2.75;;;20.30;31.80;20.80;94075.00;;;;10388311;28;45148;-62
2021/11/12 07:55:01;;;;;;;3.78;2.00;;;20.30;31.80;20.80;94065.00;;;;10389735;28;45118;-61
2021/11/12 08:00:03;;;;;;;6.03;2.90;;;20.30;32.20;19.90;94058.00;;;;10392121;28;45413;-62
2021/11/12 08:05:14;;;;;;;4.97;2.30;;;20.00;30.30;20.40;94046.00;;;;10396595;28;47348;-64
2021/11/12 08:10:23;;;;;;;3.85;2.10;;;20.00;32.10;20.60;94030.00;;;;10355584;28;46282;-64
2021/11/12 08:16:36;;;;;;;3.75;2.00;;;20.10;32.00;20.70;94044.00;;;;10353816;28;47878;-64
2021/11/12 08:21:07;;;;;;;4.30;1.88;;;20.20;31.80;20.80;94053.00;;;;10346347;28;45301;-64
2021/11/12 08:31:44;;;;;;;3.40;2.03;;;20.30;31.70;20.90;94039.00;;;;10330902;28;45234;-64
2021/11/12 08:36:57;;;;;;;3.25;1.73;;;20.30;31.70;20.80;94032.00;;;;10354372;28;45331;-64
2021/11/12 08:42:02;;;;;;;4.18;2.10;;;20.40;31.70;20.80;94023.00;;;;10353775;28;45457;-63
2021/11/12 08:47:11;;;;;;;5.35;2.03;;;20.40;31.70;20.80;94016.00;;;;10354426;28;45193;-64
2021/11/12 08:52:16;;;;;;;4.78;2.08;;;20.40;31.70;20.80;94017.00;;;;10396138;28;48301;-63
2021/11/12 08:57:18;;;;;;;3.20;1.80;;;20.40;31.70;20.80;94017.00;;;;10356688;28;46922;-64
2021/11/12 09:02:25;;;;;;;3.92;1.73;;;20.30;31.60;20.80;94025.00;;;;10375603;28;46122;-64
2021/11/12 09:07:26;;;;;;;3.28;1.90;;;20.30;31.70;20.80;94039.00;;;;10354790;28;47067;-63
2021/11/12 09:12:29;;;;;;;3.05;1.80;;;20.30;31.80;20.80;94044.00;;;;10382145;28;45593;-64
2021/11/12 09:17:31;;;;;;;2.75;1.60;;;20.30;31.80;20.70;94033.00;;;;10398016;28;45334;-64
2021/11/12 09:22:34;;;;;;;2.90;1.50;;;20.30;31.80;20.70;94021.00;;;;10377358;28;47141;-64
2021/11/12 09:27:36;;;;;;;2.80;1.50;;;20.30;31.90;20.70;94047.00;;;;10377330;28;48286;-64
2021/11/12 09:32:38;;;;;;;2.67;1.70;;;20.30;32.00;20.70;94033.00;;;;10377404;28;47089;-64
2021/11/12 09:37:38;;;;;;;1.80;1.30;;;20.30;32.00;20.70;94035.00;;;;10376835;28;47217;-64
2021/11/12 09:42:41;;;;;;;2.25;1.38;;;20.30;32.00;20.80;94027.00;;;;10393764;28;45143;-63
2021/11/12 09:47:43;;;;;;;4.00;1.88;;;20.30;32.30;20.70;94028.00;;;;10371513;28;47076;-63
2021/11/12 09:52:45;;;;;;;6.28;2.20;;;20.30;32.70;20.70;94026.00;;;;10337034;28;47508;-63
2021/11/12 09:57:47;;;;;;;4.68;1.40;;;20.30;32.70;20.70;94020.00;;;;10351672;28;45398;-64
2021/11/12 10:02:49;;;;;;;8.40;1.75;;;20.30;32.60;20.80;94009.00;;;;10351827;28;45567;-63
2021/11/12 10:07:50;;;;;;;3.88;1.40;;;20.30;32.50;20.80;94014.00;;;;10371982;28;45516;-63
2021/11/12 10:12:54;;;;;;;3.65;1.77;;;20.30;32.50;20.80;94017.00;;;;10390982;28;45186;-63
2021/11/12 10:18:09;;;;;;;3.65;1.50;;;20.40;32.40;20.80;94020.00;;;;10375379;28;47590;-63
2021/11/12 10:23:16;;;;;;;5.47;1.40;;;20.30;33.00;20.80;93998.00;;;;10391482;28;45462;-63
2021/11/12 10:28:37;;;;;;;2.58;1.30;;;20.30;32.20;20.80;93992.00;;;;10390628;28;47098;-63
2021/11/12 10:33:39;;;;;;;2.42;1.50;;;20.40;32.30;20.80;93977.00;;;;10389891;28;46352;-61
2021/11/12 10:38:45;;;;;;;3.92;1.70;;;20.40;32.20;20.90;93972.00;;;;10391644;28;45577;-61
2021/11/12 10:43:47;;;;;;;3.90;1.30;;;20.40;32.30;20.70;93963.00;;;;10375455;28;47360;-61
2021/11/12 10:48:47;;;;;;;3.67;1.55;;;20.40;32.30;20.90;93964.00;;;;10374176;28;47109;-61
2021/11/12 10:53:52;;;;;;;3.50;1.50;;;20.40;32.30;20.90;93944.00;;;;10388532;28;46510;-61
2021/11/12 10:59:04;;;;;;;3.97;1.50;;;20.40;32.30;20.90;93942.00;;;;10389531;28;46219;-61
2021/11/12 11:04:20;;;;;;;4.40;1.38;;;20.40;32.30;20.90;93930.00;;;;10388762;28;47066;-61
2021/11/12 11:09:38;;;;;;;2.58;1.50;;;20.40;32.30;20.90;93919.00;;;;10389920;28;45218;-62
2021/11/12 11:14:39;;;;;;;3.83;1.23;;;20.40;32.30;20.90;93933.00;;;;10389169;28;45496;-60
2021/11/12 11:19:40;;;;;;;2.17;1.50;;;20.40;32.30;20.90;93924.00;;;;10390671;28;45149;-60
2021/11/12 11:24:40;;;;;;;4.00;1.40;;;20.50;32.30;20.90;93914.00;;;;10389727;28;46310;-61
2021/11/12 11:29:41;;;;;;;3.10;1.20;;;20.40;32.40;20.90;93902.00;;;;10390096;28;45145;-61
2021/11/12 11:34:42;;;;;;;2.33;1.15;;;20.50;32.50;21.00;93904.00;;;;10394766;28;45286;-60
2021/11/12 11:39:43;;;;;;;9.65;1.77;;;20.50;32.60;21.00;93898.00;;;;10396446;28;46307;-64
2021/11/12 11:44:44;;;;;;;3.95;2.03;;;20.50;32.60;20.90;93891.00;;;;10396765;28;46556;-61
2021/11/12 11:49:53;;;;;;;3.28;1.85;;;20.50;32.70;20.90;93904.00;;;;10396698;28;45421;-62
2021/11/12 11:54:55;;;;;;;3.80;1.70;;;20.50;33.00;20.90;93913.00;;;;10397404;28;45519;-62
2021/11/12 12:00:27;;;;;;;3.83;1.98;;;20.40;33.10;20.90;93898.00;;;;10396561;28;45419;-62
2021/11/12 12:05:28;;;;;;;3.90;1.70;;;20.40;33.00;20.90;93893.00;;;;10376403;28;45249;-61
2021/11/12 12:10:29;;;;;;;3.17;1.45;;;20.40;33.00;20.90;93904.00;;;;10396753;28;46471;-61
2021/11/12 12:15:33;;;;;;;2.78;1.60;;;20.40;33.00;20.90;93906.00;;;;10395590;28;46296;-61
2021/11/12 13:26:00;;;;;;;2.23;1.40;;;20.30;33.10;20.80;93847.00;;;;10394019;28;46091;-62
2021/11/12 13:31:11;;;;;;;2.55;1.30;;;20.30;33.20;20.80;93846.00;;;;10393132;28;47881;-62
2021/11/12 13:36:35;;;;;;;2.78;1.90;;;20.30;33.20;20.80;93844.00;;;;10394295;28;45439;-62
2021/11/12 13:41:43;;;;;;;2.42;1.60;;;20.30;33.20;20.80;93837.00;;;;10393711;28;45306;-62
2021/11/12 13:47:00;;;;;;;3.50;1.80;;;20.30;33.30;20.80;93841.00;;;;10393471;28;45329;-63
2021/11/12 13:52:33;;;;;;;2.60;1.58;;;20.30;33.20;20.80;93842.00;;;;10393472;28;45239;-61
2021/11/12 13:57:34;;;;;;;2.45;1.70;;;20.40;33.30;20.80;93828.00;;;;10373967;28;45981;-61
2021/11/12 14:03:10;;;;;;;2.38;1.70;;;20.40;33.30;20.80;93828.00;;;;10394740;28;46135;-61
2021/11/12 14:08:13;;;;;;;2.22;1.40;;;20.30;33.20;20.80;93824.00;;;;10369894;28;45206;-61
2021/11/12 14:13:17;;;;;;;3.00;1.70;;;20.40;33.40;20.80;93842.00;;;;10351395;28;47083;-61
2021/11/12 14:24:13;;;;;;;5.28;2.17;;;20.40;34.00;20.90;93836.00;;;;10388086;28;45193;-62
2021/11/12 14:40:04;;;;;;;2.40;1.67;;;20.40;34.50;20.90;93820.00;;;;10350975;28;46131;-63
2021/11/12 14:55:53;;;;;;;;;;;20.50;35.30;21.00;93807.00;;;;10329943;28;45379;-63
2021/11/12 15:01:04;;;;;;;;;;;20.50;35.40;21.00;93807.00;;;;10350621;28;46542;-64
2021/11/12 15:06:04;;;;;;;2.63;1.80;;;20.50;35.10;21.00;93800.00;;;;10333577;28;47798;-63
2021/11/12 15:11:06;;;;;;;2.70;1.80;;;20.60;35.30;21.00;93810.00;;;;10349601;28;45464;-67
2021/11/12 15:16:41;;;;;;;5.10;2.15;;;20.60;35.10;21.00;93803.00;;;;10333560;28;47202;-63
2021/11/12 15:21:42;;;;;;;;;;;20.60;35.00;21.00;93804.00;;;;10350742;28;46000;-64
2021/11/12 15:26:58;;;;;;;3.25;1.98;;;20.60;35.10;21.00;93807.00;;;;10349322;28;47322;-64
2021/11/12 15:47:25;;;;;;;5.72;3.20;;;20.50;32.90;20.90;93827.00;;;;10386842;28;45252;-60
2021/11/12 15:52:38;;;;;;;3.63;2.60;;;20.50;33.10;20.90;93837.00;;;;10358692;28;45237;-60
2021/11/12 15:57:56;;;;;;;4.32;2.58;;;20.50;33.30;20.90;93823.00;;;;10389246;28;45394;-61
2021/11/12 16:08:43;;;;;;;3.35;2.00;;;20.50;33.30;21.00;93816.00;;;;10377732;28;45385;-60
2021/11/12 16:13:38;;;;;;;4.22;2.35;;;20.50;33.40;21.00;93844.00;;;;10385044;28;45255;-60
2021/11/12 16:18:46;;;;;;;2.65;1.80;;;20.50;33.30;21.00;93829.00;;;;10388795;28;46477;-60
2021/11/12 16:34:14;;;;;;;7.40;4.97;;;20.50;32.90;20.90;93848.00;;;;10365605;28;45563;-61
2021/11/12 16:39:17;;;;;;;8.10;5.43;;;20.50;33.10;21.00;93854.00;;;;10376445;28;45301;-62
2021/11/12 16:44:55;;;;;;;7.57;4.90;;;20.50;33.40;21.00;93841.00;;;;10395879;28;47603;-64
2021/11/12 17:47:10;;;;;;;6.97;4.47;;;20.50;34.30;21.00;93863.00;;;;10398528;28;45649;-60
2021/11/12 17:52:32;;;;;;;7.10;4.37;;;20.50;34.40;21.00;93875.00;;;;10393549;28;47347;-62
2021/11/12 21:47:15;;;;;;;4.10;2.80;;;20.20;31.50;20.70;93871.00;;;;10359642;28;45336;-61
2021/11/12 21:52:16;;;;;;;4.95;3.13;;;20.20;31.60;20.70;93876.00;;;;10353261;28;45671;-61
2021/11/12 21:57:17;;;;;;;4.60;3.17;;;20.20;31.40;20.70;93873.00;;;;10353335;28;45364;-62
2021/11/12 22:02:20;;;;;;;4.80;2.75;;;20.20;31.50;20.70;93865.00;;;;10352281;28;46950;-62
2021/11/12 22:07:22;;;;;;;4.78;2.92;;;20.20;31.10;20.70;93860.00;;;;10335512;28;47349;-60
2021/11/12 22:12:23;;;;;;;3.60;2.78;;;20.30;31.20;20.70;93859.00;;;;10353001;28;45293;-61
2021/11/12 22:17:24;;;;;;;4.05;2.72;;;20.20;31.00;20.70;93862.00;;;;10351683;28;45518;-61
2021/11/12 22:22:25;;;;;;;3.70;2.70;;;20.20;31.00;20.70;93850.00;;;;10351779;28;45483;-61
2021/11/12 22:27:25;;;;;;;3.42;2.50;;;20.20;30.90;20.70;93851.00;;;;10351038;28;45616;-61
2021/11/12 22:32:26;;;;;;;3.47;2.60;;;20.20;31.00;20.70;93842.00;;;;10352531;28;46801;-60
2021/11/12 22:37:28;;;;;;;3.40;2.60;;;20.20;31.00;20.70;93843.00;;;;10352643;28;45269;-61
2021/11/12 22:42:29;;;;;;;4.93;2.30;;;20.20;31.00;20.70;93842.00;;;;10350776;28;46559;-61
2021/11/12 22:47:30;;;;;;;3.88;2.10;;;20.20;31.10;20.70;93835.00;;;;10355280;28;45310;-61
2021/11/12 22:52:30;;;;;;;4.18;2.20;;;20.20;30.90;20.70;93836.00;;;;10392127;28;45661;-61
2021/11/12 22:57:31;;;;;;;3.53;2.20;;;20.20;31.10;20.70;93852.00;;;;10391791;28;45562;-60
2021/11/12 23:02:32;;;;;;;3.35;2.20;;;20.20;30.80;20.70;93842.00;;;;10374884;28;47039;-61
2021/11/12 23:07:33;;;;;;;3.00;2.03;;;20.20;30.90;20.70;93853.00;;;;10374019;28;45200;-61
2021/11/12 23:12:34;;;;;;;3.72;2.13;;;20.20;30.90;20.70;93851.00;;;;10350124;28;45216;-60
2021/11/12 23:17:35;;;;;;;2.28;1.90;;;20.20;30.90;20.70;93854.00;;;;10333350;28;47161;-60
2021/11/12 23:22:38;;;;;;;4.40;2.53;;;20.20;30.90;20.60;93843.00;;;;10333673;28;46989;-61
2021/11/12 23:27:39;;;;;;;3.63;2.08;;;20.10;30.80;20.60;93833.00;;;;10333106;28;48238;-60
2021/11/12 23:32:40;;;;;;;3.45;2.17;;;20.20;30.80;20.60;93858.00;;;;10357417;28;45574;-60
2021/11/12 23:37:41;;;;;;;3.90;2.40;;;20.10;30.80;20.60;93849.00;;;;10358749;28;46222;-60
2021/11/12 23:42:44;;;;;;;3.65;2.03;;;20.20;30.80;20.60;93860.00;;;;10357936;28;45143;-60
2021/11/12 23:47:45;;;;;;;2.65;1.70;;;20.10;30.70;20.60;93847.00;;;;10355935;28;46582;-61
2021/11/12 23:52:47;;;;;;;3.05;1.83;;;20.10;30.60;20.60;93847.00;;;;10356990;28;45556;-61
2021/11/12 23:57:48;;;;;;;2.80;2.00;;;20.10;30.60;20.60;93846.00;;;;10355609;28;45242;-60
